Time;durP1;ratioP1;P1;durP2;ratioP2;P2;SDS_P1;SDS_P2;PMS_P1;PMS_P2;Temp;Humidity;BMP_temperature;BMP_pressure;BME280_temperature;BME280_humidity;BME280_pressure;Samples;Min_cycle;Max_cycle;Signal;HPM_P1;HPM_P2
2023/09/20 00:02:22;;;;;;;3.00;1.58;;;18.10;99.90;;;;;;5076609;28;20031;-60
2023/09/20 00:04:48;;;;;;;4.07;1.40;;;18.20;99.90;;;;;;5096160;28;20035;-60
2023/09/20 00:07:14;;;;;;;4.70;1.50;;;18.00;99.90;;;;;;5095173;28;20035;-59
2023/09/20 00:09:40;;;;;;;7.60;1.75;;;17.80;99.90;;;;;;5094481;28;20594;-64
2023/09/20 00:12:06;;;;;;;1.70;1.20;;;18.00;99.90;;;;;;5083473;28;20042;-60
2023/09/20 00:14:32;;;;;;;2.58;1.55;;;18.10;99.90;;;;;;5096438;28;20024;-60
2023/09/20 00:17:00;;;;;;;3.22;1.73;;;18.10;99.90;;;;;;5095443;28;20101;-59
2023/09/20 00:19:25;;;;;;;4.93;1.98;;;17.80;99.90;;;;;;5095757;28;20024;-60
2023/09/20 00:21:51;;;;;;;4.13;1.60;;;17.70;99.90;;;;;;5095684;28;20344;-60
2023/09/20 00:24:16;;;;;;;2.97;1.77;;;17.60;99.90;;;;;;5095745;28;20036;-60
2023/09/20 00:26:42;;;;;;;3.60;1.60;;;17.50;99.90;;;;;;5095822;28;20761;-60
2023/09/20 00:29:08;;;;;;;3.85;1.45;;;17.70;99.90;;;;;;5095097;28;20028;-59
2023/09/20 00:31:34;;;;;;;;;;;17.80;99.90;;;;;;5095930;28;20111;-61
2023/09/20 00:34:03;;;;;;;5.18;1.63;;;17.90;99.90;;;;;;5096405;28;20020;-60
2023/09/20 00:36:29;;;;;;;6.28;2.55;;;17.80;99.90;;;;;;5095741;28;20016;-61
2023/09/20 00:38:57;;;;;;;;;;;17.60;99.90;;;;;;5094941;28;20024;-60
2023/09/20 00:41:23;;;;;;;3.40;2.28;;;17.50;99.90;;;;;;5103186;28;19904;-64
2023/09/20 00:43:52;;;;;;;3.78;1.60;;;17.50;99.90;;;;;;5105478;28;20027;-64
2023/09/20 00:46:19;;;;;;;5.55;1.73;;;17.50;99.90;;;;;;5100750;28;20021;-64
2023/09/20 00:48:45;;;;;;;2.67;2.00;;;17.40;99.90;;;;;;5098213;28;20054;-64
2023/09/20 00:51:11;;;;;;;3.75;1.50;;;17.40;99.90;;;;;;5099228;28;20020;-64
2023/09/20 00:53:37;;;;;;;;;;;17.40;99.90;;;;;;5100156;28;20368;-64
2023/09/20 00:56:04;;;;;;;2.67;1.35;;;17.50;99.90;;;;;;5099495;28;19953;-64
2023/09/20 00:58:34;;;;;;;5.88;1.95;;;17.50;99.90;;;;;;5098453;28;20020;-64
2023/09/20 01:01:00;;;;;;;4.00;1.95;;;17.40;99.90;;;;;;5098207;28;20038;-64
2023/09/20 01:03:27;;;;;;;5.95;2.30;;;17.40;99.90;;;;;;5099949;28;20107;-64
2023/09/20 01:05:54;;;;;;;4.50;2.05;;;17.40;99.90;;;;;;5099507;28;20032;-64
2023/09/20 01:08:20;;;;;;;4.35;1.70;;;17.40;99.90;;;;;;5101200;28;20031;-64
2023/09/20 01:10:46;;;;;;;6.50;2.55;;;17.40;99.90;;;;;;5100111;28;20024;-65
2023/09/20 01:13:13;;;;;;;;;;;17.50;99.90;;;;;;5098902;28;20032;-64
2023/09/20 01:15:38;;;;;;;3.92;1.55;;;17.40;99.90;;;;;;5099971;28;19904;-65
2023/09/20 01:18:04;;;;;;;4.30;1.70;;;17.30;99.90;;;;;;5098304;28;20427;-65
2023/09/20 01:20:37;;;;;;;6.15;1.73;;;17.40;99.90;;;;;;5097858;28;20062;-64
2023/09/20 01:23:02;;;;;;;4.35;2.22;;;17.40;99.90;;;;;;5079148;28;20040;-64
2023/09/20 01:25:30;;;;;;;3.95;1.65;;;17.40;99.90;;;;;;5080019;28;20119;-65
2023/09/20 01:27:58;;;;;;;5.28;1.70;;;17.50;99.90;;;;;;5093972;28;20073;-64
2023/09/20 01:30:28;;;;;;;6.60;1.90;;;17.40;99.90;;;;;;5099811;28;20028;-64
2023/09/20 01:33:00;;;;;;;3.53;1.92;;;17.50;99.90;;;;;;5100404;28;20055;-64
2023/09/20 01:35:27;;;;;;;3.50;1.50;;;17.50;99.90;;;;;;5100207;28;20023;-64
2023/09/20 01:37:55;;;;;;;5.07;1.75;;;17.40;99.90;;;;;;5100217;28;20027;-66
2023/09/20 01:40:25;;;;;;;3.40;1.52;;;17.30;99.90;;;;;;5099965;28;20069;-65
2023/09/20 01:42:52;;;;;;;6.70;1.90;;;17.30;99.90;;;;;;5099736;28;20027;-62
2023/09/20 01:45:19;;;;;;;3.40;1.50;;;17.30;99.90;;;;;;5099427;28;20256;-65
2023/09/20 01:47:50;;;;;;;3.00;1.55;;;17.30;99.90;;;;;;5099867;28;20032;-65
2023/09/20 01:50:24;;;;;;;3.42;1.70;;;17.50;99.90;;;;;;5101892;28;20027;-65
2023/09/20 01:52:58;;;;;;;3.13;1.42;;;17.50;99.90;;;;;;5100470;28;20020;-65
2023/09/20 01:55:28;;;;;;;3.38;1.98;;;17.40;99.90;;;;;;5099068;28;20027;-63
2023/09/20 01:58:00;;;;;;;5.00;1.80;;;17.20;99.90;;;;;;5099963;28;20398;-64
2023/09/20 02:00:30;;;;;;;3.05;1.50;;;17.50;99.90;;;;;;5099706;28;20024;-64
2023/09/20 02:02:57;;;;;;;4.03;1.58;;;17.50;99.90;;;;;;5100450;28;20028;-64
2023/09/20 02:05:23;;;;;;;3.33;1.75;;;17.50;99.90;;;;;;5098692;28;20080;-64
2023/09/20 02:07:50;;;;;;;2.88;1.63;;;17.50;99.90;;;;;;5100727;28;20506;-64
2023/09/20 02:10:16;;;;;;;3.03;1.48;;;17.30;99.90;;;;;;5101203;28;20023;-65
2023/09/20 02:12:53;;;;;;;4.20;1.98;;;17.20;99.90;;;;;;5099500;28;20027;-65
2023/09/20 02:15:19;;;;;;;;;;;17.20;99.90;;;;;;5100586;28;20356;-65
2023/09/20 02:17:46;;;;;;;4.03;1.80;;;17.00;99.90;;;;;;5098946;28;19904;-65
2023/09/20 02:20:24;;;;;;;;;;;17.10;99.90;;;;;;5099599;28;20020;-65
2023/09/20 02:22:53;;;;;;;4.75;1.58;;;17.20;99.90;;;;;;5100830;28;19915;-65
2023/09/20 02:25:22;;;;;;;4.45;1.88;;;17.20;99.90;;;;;;5098571;28;20055;-65
2023/09/20 02:27:49;;;;;;;3.53;1.60;;;17.30;99.90;;;;;;5097894;28;20035;-65
2023/09/20 02:30:17;;;;;;;3.88;1.60;;;17.30;99.90;;;;;;5100332;28;20032;-65
2023/09/20 02:32:43;;;;;;;3.40;1.80;;;17.20;99.90;;;;;;5100079;28;20024;-65
2023/09/20 02:35:09;;;;;;;2.45;1.60;;;17.10;99.90;;;;;;5099841;28;20020;-65
2023/09/20 02:37:35;;;;;;;4.20;1.73;;;17.00;99.90;;;;;;5099863;28;20073;-65
2023/09/20 02:40:07;;;;;;;4.60;1.77;;;17.10;99.90;;;;;;5098582;28;20032;-64
2023/09/20 02:42:40;;;;;;;4.40;1.70;;;17.20;99.90;;;;;;5098447;28;20036;-64
2023/09/20 02:45:07;;;;;;;3.13;1.50;;;17.40;99.90;;;;;;5100143;28;20030;-65
2023/09/20 02:47:32;;;;;;;3.80;1.42;;;17.30;99.90;;;;;;5099711;28;20025;-65
2023/09/20 02:49:58;;;;;;;2.88;1.50;;;17.30;99.90;;;;;;5099024;28;20092;-65
2023/09/20 02:52:23;;;;;;;3.15;1.70;;;17.10;99.90;;;;;;5100564;28;20035;-65
2023/09/20 02:54:51;;;;;;;3.57;1.73;;;17.20;99.90;;;;;;5098966;28;20036;-65
2023/09/20 02:57:16;;;;;;;3.00;1.85;;;17.30;99.90;;;;;;5097501;28;20024;-64
2023/09/20 02:59:42;;;;;;;4.00;1.70;;;17.10;99.90;;;;;;5098125;28;20080;-64
2023/09/20 03:02:10;;;;;;;3.65;1.90;;;16.90;99.90;;;;;;5098011;28;20270;-64
2023/09/20 03:04:38;;;;;;;3.65;1.70;;;17.00;99.90;;;;;;5095699;28;20085;-64
2023/09/20 03:07:06;;;;;;;3.85;1.58;;;17.00;99.90;;;;;;5098552;28;20028;-65
2023/09/20 03:09:36;;;;;;;3.03;1.40;;;16.90;99.90;;;;;;5103006;28;20028;-65
2023/09/20 03:12:05;;;;;;;5.85;1.88;;;16.70;99.90;;;;;;5100816;28;20051;-63
2023/09/20 03:14:33;;;;;;;5.32;1.70;;;16.60;99.90;;;;;;5103288;28;20020;-65
2023/09/20 03:17:00;;;;;;;3.45;1.52;;;16.60;99.90;;;;;;5103787;28;20477;-65
2023/09/20 03:19:26;;;;;;;2.78;1.40;;;16.70;99.90;;;;;;5103132;28;20425;-65
2023/09/20 03:21:51;;;;;;;1.95;1.40;;;16.60;99.90;;;;;;5103609;28;20094;-65
2023/09/20 03:24:17;;;;;;;3.75;1.42;;;16.90;99.90;;;;;;5103533;28;20063;-64
2023/09/20 03:26:42;;;;;;;3.92;1.60;;;17.00;99.90;;;;;;5102523;28;20522;-65
2023/09/20 03:29:08;;;;;;;2.83;1.60;;;17.00;99.90;;;;;;5103365;28;20092;-64
2023/09/20 03:31:34;;;;;;;4.72;1.40;;;17.00;99.90;;;;;;5102788;28;20139;-65
2023/09/20 03:34:00;;;;;;;2.45;1.30;;;16.80;99.90;;;;;;5103839;28;20024;-65
2023/09/20 03:36:27;;;;;;;3.75;1.50;;;16.90;99.90;;;;;;5104375;28;20024;-65
2023/09/20 03:38:55;;;;;;;;;;;16.80;99.90;;;;;;5104681;28;20046;-65
2023/09/20 03:41:20;;;;;;;6.03;2.15;;;16.60;99.90;;;;;;5104882;28;19904;-65
2023/09/20 03:43:47;;;;;;;3.08;1.85;;;16.60;99.90;;;;;;5101280;28;20081;-65
2023/09/20 03:46:13;;;;;;;5.38;1.88;;;16.80;99.90;;;;;;5104019;28;20077;-64
2023/09/20 03:48:39;;;;;;;2.20;1.60;;;16.80;99.90;;;;;;5104197;28;20051;-65
2023/09/20 03:51:04;;;;;;;6.13;2.30;;;16.60;99.90;;;;;;5102511;28;20421;-65
2023/09/20 03:53:30;;;;;;;4.68;2.33;;;16.50;99.90;;;;;;5102730;28;20317;-64
2023/09/20 03:55:55;;;;;;;3.77;2.20;;;16.50;99.90;;;;;;5102618;28;20125;-65
2023/09/20 03:58:21;;;;;;;6.37;1.93;;;16.50;99.90;;;;;;5101771;28;20021;-65
2023/09/20 04:00:47;;;;;;;2.37;1.50;;;16.50;99.90;;;;;;5101917;28;20255;-65
2023/09/20 04:03:13;;;;;;;3.70;1.77;;;16.50;99.90;;;;;;5100729;28;20570;-65
2023/09/20 04:05:39;;;;;;;;;;;16.50;99.90;;;;;;5100985;28;20040;-65
2023/09/20 04:08:08;;;;;;;2.55;1.95;;;16.50;99.90;;;;;;5100451;28;19953;-65
2023/09/20 04:10:35;;;;;;;5.47;1.88;;;16.50;99.90;;;;;;5100260;28;20545;-65
2023/09/20 04:13:01;;;;;;;2.97;1.98;;;16.50;99.90;;;;;;5101666;28;20027;-65
2023/09/20 04:15:27;;;;;;;2.90;2.08;;;16.50;99.90;;;;;;5098271;28;20016;-65
2023/09/20 04:17:52;;;;;;;;;;;16.50;99.90;;;;;;5100981;28;20063;-65
2023/09/20 04:20:22;;;;;;;2.97;1.75;;;16.50;99.90;;;;;;5100186;28;19904;-64
2023/09/20 04:22:49;;;;;;;5.38;2.45;;;16.90;99.90;;;;;;5098874;28;20036;-64
2023/09/20 04:25:15;;;;;;;4.32;1.98;;;16.80;99.90;;;;;;5098425;28;20418;-65
2023/09/20 04:27:41;;;;;;;3.85;2.25;;;16.60;99.90;;;;;;5099344;28;20479;-65
2023/09/20 04:30:08;;;;;;;5.85;1.92;;;16.60;99.90;;;;;;5099586;28;20059;-65
2023/09/20 04:32:35;;;;;;;4.72;2.20;;;16.50;99.90;;;;;;5099411;28;20391;-65
2023/09/20 04:35:02;;;;;;;4.47;2.58;;;16.50;99.90;;;;;;5088221;28;20443;-60
2023/09/20 04:37:28;;;;;;;6.65;2.15;;;16.80;99.90;;;;;;5088505;28;20017;-62
2023/09/20 04:39:54;;;;;;;4.28;1.90;;;16.90;99.90;;;;;;5080074;28;20021;-61
2023/09/20 04:42:19;;;;;;;3.30;2.00;;;16.90;99.90;;;;;;5075455;28;20040;-62
2023/09/20 04:44:45;;;;;;;4.57;1.88;;;17.00;99.90;;;;;;5089932;28;20532;-64
2023/09/20 04:47:11;;;;;;;4.67;2.13;;;16.80;99.90;;;;;;5091283;28;20081;-63
2023/09/20 04:49:37;;;;;;;;;;;16.80;99.90;;;;;;5093005;28;20463;-63
2023/09/20 04:52:04;;;;;;;;;;;17.00;99.90;;;;;;5080855;28;19915;-63
2023/09/20 04:54:30;;;;;;;;;;;16.90;99.90;;;;;;5095861;28;19949;-63
2023/09/20 04:56:55;;;;;;;;;;;16.90;99.90;;;;;;5092724;28;19908;-63
2023/09/20 04:59:22;;;;;;;;;;;16.70;99.90;;;;;;5075087;28;19905;-62
2023/09/20 05:01:49;;;;;;;;;;;16.90;99.90;;;;;;5075614;28;20274;-62
2023/09/20 05:04:18;;;;;;;;;;;16.80;99.90;;;;;;5075782;28;19935;-62
2023/09/20 05:06:44;;;;;;;;;;;16.70;99.90;;;;;;5076421;28;19951;-64
2023/09/20 05:09:09;;;;;;;;;;;16.60;99.90;;;;;;5094718;28;19915;-63
2023/09/20 05:11:35;;;;;;;;;;;16.60;99.90;;;;;;5095021;28;19904;-61
2023/09/20 05:14:00;;;;;;;;;;;16.50;99.90;;;;;;5094846;28;19904;-62
2023/09/20 05:16:26;;;;;;;;;;;16.40;99.90;;;;;;5094334;28;19934;-63
2023/09/20 05:18:52;;;;;;;;;;;16.30;99.90;;;;;;5094313;28;19954;-60
2023/09/20 05:21:17;;;;;;;;;;;16.30;99.90;;;;;;5095411;28;20362;-61
2023/09/20 05:23:43;;;;;;;;;;;16.30;99.90;;;;;;5095094;28;19916;-60
2023/09/20 05:26:08;;;;;;;;;;;16.20;99.90;;;;;;5095381;28;19904;-61
2023/09/20 05:28:35;;;;;;;;;;;16.30;99.90;;;;;;5093167;28;20262;-61
2023/09/20 05:31:02;;;;;;;;;;;16.40;99.90;;;;;;5094833;28;19904;-62
2023/09/20 05:33:30;;;;;;;;;;;16.50;99.90;;;;;;5094597;28;19947;-63
2023/09/20 05:35:57;;;;;;;;;;;16.30;99.90;;;;;;5094699;28;19908;-62
2023/09/20 05:38:24;;;;;;;;;;;16.30;99.90;;;;;;5094149;28;19904;-60
2023/09/20 05:40:49;;;;;;;;;;;16.30;99.90;;;;;;5094173;28;19904;-62
2023/09/20 05:43:16;;;;;;;;;;;16.30;99.90;;;;;;5094282;28;19911;-61
2023/09/20 05:45:41;;;;;;;;;;;16.30;99.90;;;;;;5094485;28;19943;-59
2023/09/20 05:48:09;;;;;;;;;;;16.30;99.90;;;;;;5094543;28;20475;-58
2023/09/20 05:50:35;;;;;;;;;;;16.50;99.90;;;;;;5094843;28;20033;-63
2023/09/20 05:53:10;;;;;;;;;;;16.60;99.90;;;;;;5093772;28;19979;-61
2023/09/20 05:55:39;;;;;;;;;;;16.60;99.90;;;;;;5095891;28;20290;-61
2023/09/20 05:58:05;;;;;;;;;;;16.60;99.90;;;;;;5094123;28;19904;-60
2023/09/20 06:00:31;;;;;;;;;;;16.50;99.90;;;;;;5094120;28;20390;-61
2023/09/20 06:02:57;;;;;;;;;;;16.50;99.90;;;;;;5094282;28;19911;-60
2023/09/20 06:05:24;;;;;;;;;;;16.50;99.90;;;;;;5092210;28;19904;-61
2023/09/20 06:07:57;;;;;;;;;;;16.50;99.90;;;;;;5094630;28;20347;-60
2023/09/20 06:10:23;;;;;;;;;;;16.50;99.90;;;;;;5094204;28;19939;-61
2023/09/20 06:12:50;;;;;;;;;;;16.50;99.90;;;;;;5092357;28;19978;-61
2023/09/20 06:15:16;;;;;;;;;;;16.60;99.90;;;;;;5094239;28;19935;-62
2023/09/20 06:17:48;;;;;;;;;;;16.60;99.90;;;;;;5094280;28;20096;-61
2023/09/20 06:20:19;;;;;;;;;;;16.60;99.90;;;;;;5094448;28;19904;-61
2023/09/20 06:22:56;;;;;;;;;;;16.70;99.90;;;;;;5093899;28;19998;-61
2023/09/20 06:25:22;;;;;;;;;;;16.70;99.90;;;;;;5092685;28;19904;-61
2023/09/20 06:27:51;;;;;;;;;;;16.70;99.90;;;;;;5092379;28;19904;-60
2023/09/20 06:30:17;;;;;;;;;;;16.70;99.90;;;;;;5092623;28;19934;-60
2023/09/20 06:32:44;;;;;;;;;;;16.70;99.90;;;;;;5093722;28;19965;-60
2023/09/20 06:35:10;;;;;;;;;;;16.70;99.90;;;;;;5093705;28;20331;-59
2023/09/20 06:37:36;;;;;;;;;;;16.70;99.90;;;;;;5093928;28;20387;-60
2023/09/20 06:40:03;;;;;;;;;;;16.70;99.90;;;;;;5094318;28;20362;-61
2023/09/20 06:42:30;;;;;;;;;;;16.80;99.90;;;;;;5093285;28;19965;-61
2023/09/20 06:44:55;;;;;;;;;;;16.80;99.90;;;;;;5093301;28;19904;-60
2023/09/20 06:47:24;;;;;;;;;;;16.90;99.90;;;;;;5095327;28;19911;-62
2023/09/20 06:49:50;;;;;;;;;;;16.80;99.90;;;;;;5101638;28;19915;-59
2023/09/20 06:52:15;;;;;;;;;;;16.80;99.90;;;;;;5099900;28;19908;-60
2023/09/20 06:54:41;;;;;;;;;;;16.80;99.90;;;;;;5094156;28;20443;-61
2023/09/20 06:57:07;;;;;;;;;;;16.90;99.90;;;;;;5094549;28;20370;-61
2023/09/20 06:59:33;;;;;;;;;;;17.00;99.90;;;;;;5091904;28;19904;-60
2023/09/20 07:01:59;;;;;;;;;;;16.90;99.90;;;;;;5093120;28;19904;-63
2023/09/20 07:04:25;;;;;;;;;;;17.00;99.90;;;;;;5092109;28;20374;-60
2023/09/20 07:06:52;;;;;;;;;;;16.90;99.90;;;;;;5093157;28;20022;-61
2023/09/20 07:09:17;;;;;;;;;;;16.90;99.90;;;;;;5093176;28;20263;-61
2023/09/20 07:11:43;;;;;;;;;;;16.90;99.90;;;;;;5093153;28;19988;-61
2023/09/20 07:14:09;;;;;;;;;;;16.90;99.90;;;;;;5092841;28;19904;-58
2023/09/20 07:16:36;;;;;;;;;;;17.00;99.90;;;;;;5093073;28;19930;-60
2023/09/20 07:19:05;;;;;;;;;;;17.10;99.90;;;;;;5092949;28;20421;-60
2023/09/20 07:21:31;;;;;;;;;;;17.20;99.90;;;;;;5093278;28;19910;-59
2023/09/20 07:23:59;;;;;;;;;;;17.20;99.90;;;;;;5093002;28;20006;-62
2023/09/20 07:26:26;;;;;;;;;;;17.30;99.90;;;;;;5092125;28;19954;-60
2023/09/20 07:28:51;;;;;;;;;;;17.30;99.90;;;;;;5092732;28;19947;-60
2023/09/20 07:31:21;;;;;;;;;;;17.40;99.90;;;;;;5093573;28;20346;-61
2023/09/20 07:33:50;;;;;;;;;;;17.40;99.90;;;;;;5093828;28;19960;-61
2023/09/20 07:36:15;;;;;;;;;;;17.40;99.90;;;;;;5093379;28;19932;-61
2023/09/20 07:38:41;;;;;;;;;;;17.40;99.90;;;;;;5092992;28;20381;-62
2023/09/20 07:41:13;;;;;;;;;;;17.50;99.90;;;;;;5093287;28;19984;-60
2023/09/20 07:43:39;;;;;;;;;;;17.50;99.90;;;;;;5092890;28;19904;-59
2023/09/20 07:46:06;;;;;;;;;;;17.70;99.90;;;;;;5093524;28;20354;-60
2023/09/20 07:48:33;;;;;;;;;;;17.90;99.90;;;;;;5093221;28;19919;-57
2023/09/20 07:50:59;;;;;;;;;;;18.10;99.90;;;;;;5093346;28;19911;-60
2023/09/20 07:53:25;;;;;;;;;;;18.40;99.90;;;;;;5092674;28;19915;-59
2023/09/20 07:56:01;;;;;;;;;;;18.40;99.90;;;;;;5096869;28;19904;-62
2023/09/20 07:58:27;;;;;;;;;;;18.60;99.90;;;;;;5096484;28;19953;-60
2023/09/20 08:00:56;;;;;;;;;;;18.70;99.90;;;;;;5096910;28;19910;-63
2023/09/20 08:03:22;;;;;;;;;;;18.80;99.90;;;;;;5096685;28;20266;-59
2023/09/20 08:05:51;;;;;;;;;;;19.00;99.90;;;;;;5096722;28;19904;-59
2023/09/20 08:08:17;;;;;;;;;;;19.10;99.90;;;;;;5096724;28;19954;-61
2023/09/20 08:10:44;;;;;;;;;;;19.20;99.90;;;;;;5096404;28;19916;-61
2023/09/20 08:13:10;;;;;;;;;;;19.40;99.90;;;;;;5096213;28;20052;-59
2023/09/20 08:15:42;;;;;;;;;;;19.50;99.90;;;;;;5096393;28;19945;-61
2023/09/20 08:20:51;;;;;;;;;;;19.80;99.90;;;;;;5096563;28;19911;-57
2023/09/20 09:01:59;;;;;;;;;;;27.30;94.80;;;;;;5095470;28;19915;-61
2023/09/20 09:04:24;;;;;;;;;;;28.70;93.00;;;;;;5094799;28;19934;-60
2023/09/20 09:06:50;;;;;;;;;;;28.90;91.60;;;;;;5095319;28;19930;-63
2023/09/20 09:09:16;;;;;;;;;;;28.20;91.60;;;;;;5095608;28;19904;-61
2023/09/20 09:11:44;;;;;;;;;;;28.60;91.70;;;;;;5095281;28;19908;-61
2023/09/20 09:14:09;;;;;;;;;;;29.50;90.50;;;;;;5094730;28;19904;-60
2023/09/20 09:16:35;;;;;;;;;;;31.10;88.30;;;;;;5093660;28;19904;-61
2023/09/20 09:19:00;;;;;;;;;;;32.90;84.90;;;;;;5094952;28;19904;-61
2023/09/20 09:21:26;;;;;;;;;;;34.70;79.90;;;;;;5094998;28;20223;-60
2023/09/20 09:23:52;;;;;;;;;;;36.20;76.10;;;;;;5093417;28;20393;-61
2023/09/20 09:26:17;;;;;;;;;;;36.30;73.30;;;;;;5094806;28;19904;-60
2023/09/20 09:28:46;;;;;;;;;;;35.70;73.20;;;;;;5094654;28;19914;-61
2023/09/20 09:31:12;;;;;;;;;;;35.00;73.50;;;;;;5094905;28;19904;-62
2023/09/20 09:33:38;;;;;;;;;;;34.00;74.60;;;;;;5094654;28;20012;-61
2023/09/20 09:36:04;;;;;;;;;;;33.70;74.90;;;;;;5095004;28;19917;-64
2023/09/20 09:38:33;;;;;;;;;;;33.20;76.30;;;;;;5095065;28;19908;-60
2023/09/20 09:40:58;;;;;;;;;;;32.40;77.40;;;;;;5094534;28;20343;-61
2023/09/20 09:43:31;;;;;;;;;;;32.10;77.60;;;;;;5093990;28;20010;-60
2023/09/20 09:46:10;;;;;;;;;;;31.70;78.40;;;;;;5094432;28;19907;-59
2023/09/20 09:48:37;;;;;;;;;;;32.30;78.10;;;;;;5094447;28;19904;-59
2023/09/20 09:51:04;;;;;;;;;;;33.60;76.90;;;;;;5094504;28;19908;-62
2023/09/20 09:53:30;;;;;;;;;;;35.00;74.20;;;;;;5095167;28;20367;-61
2023/09/20 09:55:56;;;;;;;;;;;36.30;72.70;;;;;;5095256;28;19915;-62
2023/09/20 09:58:21;;;;;;;;;;;37.40;70.70;;;;;;5094121;28;20355;-58
2023/09/20 10:00:48;;;;;;;;;;;37.00;70.00;;;;;;5093782;28;19999;-60
2023/09/20 10:03:25;;;;;;;;;;;37.80;69.10;;;;;;5094063;28;19904;-61
2023/09/20 10:05:52;;;;;;;;;;;38.60;67.30;;;;;;5094498;28;19904;-59
2023/09/20 10:08:20;;;;;;;;;;;38.50;66.60;;;;;;5093957;28;19953;-61
2023/09/20 10:10:45;;;;;;;;;;;37.80;66.80;;;;;;5093769;28;20380;-61
2023/09/20 10:13:12;;;;;;;;;;;37.50;67.10;;;;;;5093986;28;19915;-62
2023/09/20 10:15:37;;;;;;;;;;;38.10;66.70;;;;;;5093714;28;19958;-61
2023/09/20 10:18:03;;;;;;;;;;;38.50;65.20;;;;;;5093202;28;19908;-61
2023/09/20 10:20:54;;;;;;;;;;;38.90;64.40;;;;;;5093864;28;19957;-61
2023/09/20 10:23:21;;;;;;;;;;;38.80;64.30;;;;;;5094164;28;19920;-62
2023/09/20 10:25:48;;;;;;;;;;;39.50;62.10;;;;;;5094239;28;19957;-61
2023/09/20 10:28:16;;;;;;;;;;;39.40;60.90;;;;;;5093789;28;19904;-61
2023/09/20 10:31:04;;;;;;;;;;;39.40;61.00;;;;;;5093431;28;20187;-62
2023/09/20 10:33:45;;;;;;;;;;;39.20;60.40;;;;;;5093662;28;19961;-62
2023/09/20 10:36:31;;;;;;;;;;;38.20;61.60;;;;;;5093929;28;20286;-62
2023/09/20 10:39:16;;;;;;;;;;;38.80;61.60;;;;;;5093586;28;20007;-62
2023/09/20 10:41:42;;;;;;;;;;;38.80;61.30;;;;;;5093549;28;19996;-61
2023/09/20 10:44:09;;;;;;;;;;;39.30;60.70;;;;;;5093293;28;20366;-62
2023/09/20 10:46:35;;;;;;;;;;;38.80;60.60;;;;;;5093524;28;19904;-62
2023/09/20 10:49:01;;;;;;;;;;;39.00;60.90;;;;;;5093394;28;19904;-57
2023/09/20 10:51:43;;;;;;;;;;;38.90;60.50;;;;;;5093738;28;20002;-62
2023/09/20 10:54:18;;;;;;;;;;;38.80;60.70;;;;;;5093544;28;20381;-62
2023/09/20 10:56:53;;;;;;;;;;;39.20;60.30;;;;;;5093696;28;19915;-61
2023/09/20 10:59:19;;;;;;;;;;;39.10;59.80;;;;;;5094046;28;20007;-61
2023/09/20 11:01:51;;;;;;;;;;;38.30;59.80;;;;;;5094111;28;19974;-60
2023/09/20 11:04:19;;;;;;;;;;;35.90;61.70;;;;;;5093571;28;19904;-61
2023/09/20 11:06:46;;;;;;;;;;;33.50;64.70;;;;;;5094030;28;19951;-60
2023/09/20 11:09:15;;;;;;;;;;;31.60;67.40;;;;;;5093464;28;19962;-58
2023/09/20 11:11:41;;;;;;;;;;;30.20;69.70;;;;;;5093713;28;19904;-58
2023/09/20 11:14:07;;;;;;;;;;;29.00;71.90;;;;;;5093969;28;19908;-61
2023/09/20 11:16:32;;;;;;;;;;;28.20;72.80;;;;;;5094616;28;19934;-59
2023/09/20 11:18:58;;;;;;;;;;;27.50;74.60;;;;;;5093608;28;19911;-61
2023/09/20 11:21:24;;;;;;;;;;;27.10;76.00;;;;;;5094514;28;19911;-61
2023/09/20 11:23:50;;;;;;;;;;;26.80;76.50;;;;;;5094329;28;19953;-61
2023/09/20 11:26:28;;;;;;;;;;;26.60;76.90;;;;;;5093919;28;19953;-60
2023/09/20 11:28:54;;;;;;;;;;;26.30;77.70;;;;;;5095588;28;20362;-62
2023/09/20 11:31:27;;;;;;;;;;;26.10;77.30;;;;;;5097385;28;19904;-61
2023/09/20 11:33:57;;;;;;;;;;;25.70;78.50;;;;;;5097315;28;19912;-59
2023/09/20 11:36:23;;;;;;;;;;;25.60;79.20;;;;;;5097872;28;19915;-62
2023/09/20 11:38:49;;;;;;;;;;;25.60;79.20;;;;;;5097520;28;19904;-61
2023/09/20 11:41:14;;;;;;;;;;;25.70;80.20;;;;;;5097391;28;19911;-62
2023/09/20 11:43:41;;;;;;;;;;;25.70;79.30;;;;;;5097174;28;19903;-63
2023/09/20 11:46:13;;;;;;;;;;;25.50;78.60;;;;;;5097253;28;19911;-62
2023/09/20 11:48:38;;;;;;;;;;;25.40;78.70;;;;;;5097274;28;20339;-62
2023/09/20 11:51:04;;;;;;;;;;;25.40;79.70;;;;;;5097279;28;20002;-62
2023/09/20 11:53:30;;;;;;;;;;;25.50;79.40;;;;;;5096767;28;20358;-61
2023/09/20 11:55:58;;;;;;;;;;;25.70;79.40;;;;;;5096883;28;19930;-63
2023/09/20 11:58:23;;;;;;;;;;;25.60;79.20;;;;;;5096808;28;19904;-62
2023/09/20 12:00:49;;;;;;;;;;;25.50;79.10;;;;;;5096285;28;19904;-61
2023/09/20 12:03:15;;;;;;;;;;;25.30;77.80;;;;;;5096615;28;19957;-60
2023/09/20 12:05:41;;;;;;;;;;;25.30;78.70;;;;;;5078814;28;19912;-62
2023/09/20 12:08:07;;;;;;;;;;;25.20;79.40;;;;;;5076527;28;19904;-59
2023/09/20 12:10:32;;;;;;;;;;;25.40;78.80;;;;;;5076313;28;20282;-62
2023/09/20 12:12:58;;;;;;;;;;;25.40;78.80;;;;;;5076213;28;19943;-63
2023/09/20 12:15:23;;;;;;;;;;;25.40;78.60;;;;;;5075975;28;19954;-62
2023/09/20 12:17:51;;;;;;;;;;;25.40;78.00;;;;;;5085162;28;19904;-64
2023/09/20 12:20:17;;;;;;;;;;;25.40;78.60;;;;;;5096591;28;19911;-64
2023/09/20 12:22:43;;;;;;;;;;;25.50;78.40;;;;;;5096504;28;19916;-64
2023/09/20 12:25:11;;;;;;;;;;;25.50;76.90;;;;;;5096169;28;19911;-63
2023/09/20 12:27:36;;;;;;;;;;;25.50;77.90;;;;;;5096182;28;19911;-59
2023/09/20 12:30:03;;;;;;;;;;;25.60;77.30;;;;;;5094050;28;19912;-62
2023/09/20 12:32:30;;;;;;;;;;;25.80;76.90;;;;;;5095317;28;19907;-60
2023/09/20 12:34:55;;;;;;;;;;;25.80;77.90;;;;;;5096122;28;19911;-62
2023/09/20 12:37:21;;;;;;;;;;;25.90;76.90;;;;;;5096178;28;20270;-62
2023/09/20 12:39:47;;;;;;;;;;;25.70;77.10;;;;;;5095240;28;20381;-64
2023/09/20 12:42:13;;;;;;;;;;;25.70;77.70;;;;;;5097380;28;19911;-66
2023/09/20 12:44:38;;;;;;;;;;;25.70;76.10;;;;;;5097182;28;19903;-64
2023/09/20 12:47:03;;;;;;;;;;;25.60;76.70;;;;;;5093552;28;20022;-63
2023/09/20 12:49:29;;;;;;;;;;;25.70;77.40;;;;;;5096414;28;19908;-66
2023/09/20 12:51:54;;;;;;;;;;;25.80;77.40;;;;;;5098912;28;19958;-65
2023/09/20 12:54:20;;;;;;;;;;;25.80;77.50;;;;;;5099431;28;19911;-65
2023/09/20 12:56:46;;;;;;;;;;;26.00;76.90;;;;;;5100168;28;19904;-66
2023/09/20 12:59:13;;;;;;;;;;;26.00;76.50;;;;;;5097807;28;19969;-64
2023/09/20 13:01:38;;;;;;;;;;;26.10;74.50;;;;;;5097979;28;19911;-64
2023/09/20 13:04:04;;;;;;;;;;;26.10;74.30;;;;;;5093964;28;19908;-64
2023/09/20 13:06:32;;;;;;;;;;;26.00;74.90;;;;;;5093129;28;20290;-66
2023/09/20 13:08:58;;;;;;;;;;;26.00;75.70;;;;;;5098241;28;19908;-67
2023/09/20 13:11:23;;;;;;;;;;;26.20;75.30;;;;;;5100053;28;20358;-68
2023/09/20 13:13:49;;;;;;;;;;;26.20;75.60;;;;;;5087796;28;20284;-66
2023/09/20 13:16:16;;;;;;;;;;;26.20;74.10;;;;;;5080044;28;19905;-67
2023/09/20 13:18:44;;;;;;;;;;;26.20;74.50;;;;;;5097112;28;20035;-66
2023/09/20 13:21:09;;;;;;;;;;;26.30;75.40;;;;;;5100667;28;19904;-66
2023/09/20 13:23:35;;;;;;;;;;;26.30;73.80;;;;;;5101322;28;20049;-66
2023/09/20 13:26:03;;;;;;;;;;;26.30;74.40;;;;;;5100145;28;19912;-66
2023/09/20 13:28:29;;;;;;;;;;;26.30;73.70;;;;;;5090945;28;19915;-65
2023/09/20 13:30:55;;;;;;;;;;;26.20;73.80;;;;;;5095754;28;19904;-66
2023/09/20 13:33:20;;;;;;;;;;;26.30;74.30;;;;;;5086838;28;19908;-64
2023/09/20 13:35:46;;;;;;;;;;;26.30;74.60;;;;;;5090017;28;19912;-65
2023/09/20 13:38:12;;;;;;;;;;;26.30;75.20;;;;;;5077414;28;19912;-65
2023/09/20 13:40:38;;;;;;;;;;;26.40;74.70;;;;;;5092251;28;20228;-63
2023/09/20 13:43:04;;;;;;;;;;;26.40;74.90;;;;;;5092205;28;19904;-63
2023/09/20 13:45:31;;;;;;;;;;;26.30;75.70;;;;;;5082265;28;20279;-64
2023/09/20 13:47:56;;;;;;;;;;;26.30;75.50;;;;;;5094964;28;20034;-64
2023/09/20 13:50:21;;;;;;;;;;;26.30;75.10;;;;;;5096102;28;19996;-65
2023/09/20 13:52:47;;;;;;;;;;;26.30;75.30;;;;;;5078118;28;19908;-64
2023/09/20 13:55:16;;;;;;;;;;;26.20;75.30;;;;;;5080641;28;19912;-64
2023/09/20 13:57:43;;;;;;;;;;;26.20;75.40;;;;;;5084655;28;20228;-65
2023/09/20 14:00:16;;;;;;;;;;;26.30;75.90;;;;;;5082793;28;19931;-65
2023/09/20 14:02:42;;;;;;;;;;;26.30;75.80;;;;;;5089980;28;19908;-66
2023/09/20 14:05:14;;;;;;;;;;;26.30;75.70;;;;;;5087577;28;19908;-65
2023/09/20 14:07:49;;;;;;;;;;;26.40;75.40;;;;;;5083306;28;19916;-65
2023/09/20 14:10:16;;;;;;;;;;;26.40;75.70;;;;;;5087379;28;20370;-65
2023/09/20 14:12:42;;;;;;;;;;;26.40;75.50;;;;;;5085175;28;19909;-65
2023/09/20 14:15:10;;;;;;;;;;;26.40;75.40;;;;;;5084229;28;19908;-66
2023/09/20 14:17:36;;;;;;;;;;;26.40;76.40;;;;;;5083830;28;20396;-64
2023/09/20 14:20:09;;;;;;;;;;;26.30;77.20;;;;;;5087142;28;19908;-64
2023/09/20 14:22:38;;;;;;;;;;;26.40;77.50;;;;;;5084158;28;19908;-65
2023/09/20 14:25:06;;;;;;;;;;;26.50;76.80;;;;;;5085262;28;19921;-65
2023/09/20 14:27:31;;;;;;;;;;;26.30;76.90;;;;;;5082543;28;19908;-65
2023/09/20 14:29:57;;;;;;;;;;;26.20;76.70;;;;;;5076178;28;20478;-65